createdAt,value
2023-10-29T00:00:57.728Z,67.91
2023-10-29T00:03:25.164Z,68.31
2023-10-29T00:05:52.643Z,68.24
2023-10-29T00:08:20.062Z,68.59
2023-10-29T00:10:47.837Z,68.68
2023-10-29T00:13:15.240Z,69.17
2023-10-29T00:15:42.853Z,68.93
2023-10-29T00:18:13.783Z,68.75
2023-10-29T00:20:41.295Z,68.96
2023-10-29T00:23:08.939Z,69.19
2023-10-29T00:25:36.265Z,68.88
2023-10-29T00:28:03.646Z,69.68
2023-10-29T00:30:31.159Z,69.54
2023-10-29T00:32:58.566Z,69.67
2023-10-29T00:35:25.926Z,69.12
2023-10-29T00:37:53.360Z,69.73
2023-10-29T00:40:21.456Z,69.77
2023-10-29T00:42:48.737Z,70.44
2023-10-29T00:45:16.085Z,70.34
2023-10-29T00:47:43.624Z,69.60
2023-10-29T00:50:12.724Z,70.29
2023-10-29T00:52:40.073Z,69.33
2023-10-29T00:55:10.082Z,69.95
2023-10-29T00:57:38.231Z,69.76
2023-10-29T01:00:07.592Z,70.48
2023-10-29T01:02:35.472Z,71.00
2023-10-29T01:05:06.328Z,70.35
2023-10-29T01:07:34.002Z,70.80
2023-10-29T01:10:01.509Z,71.33
2023-10-29T01:12:29.138Z,71.00
2023-10-29T01:14:56.574Z,71.19
2023-10-29T01:17:24.925Z,71.35
2023-10-29T01:19:52.750Z,71.45
2023-10-29T01:22:20.124Z,70.95
2023-10-29T01:24:47.579Z,70.43
2023-10-29T01:27:14.996Z,70.04
2023-10-29T01:29:42.491Z,70.75
2023-10-29T01:32:10.070Z,70.94
2023-10-29T01:34:37.466Z,71.20
2023-10-29T01:37:04.740Z,70.79
2023-10-29T01:39:31.985Z,71.62
2023-10-29T01:41:59.382Z,71.40
2023-10-29T01:44:26.942Z,71.16
2023-10-29T01:46:54.865Z,71.03
2023-10-29T01:49:22.116Z,70.36
2023-10-29T01:51:50.950Z,70.71
2023-10-29T01:54:18.184Z,70.43
2023-10-29T01:56:45.856Z,70.46
2023-10-29T01:59:15.190Z,70.46
2023-10-29T02:01:44.026Z,70.86
2023-10-29T02:04:12.349Z,70.18
2023-10-29T02:06:42.571Z,70.54
2023-10-29T02:09:10.656Z,70.13
2023-10-29T02:11:39.124Z,70.41
2023-10-29T02:14:07.104Z,70.65
2023-10-29T02:16:34.913Z,70.18
2023-10-29T02:19:02.256Z,70.21
2023-10-29T02:21:29.578Z,69.99
2023-10-29T02:23:56.918Z,71.93
2023-10-29T02:26:24.870Z,71.50
2023-10-29T02:28:52.270Z,71.10
2023-10-29T02:31:20.879Z,70.58
2023-10-29T02:33:49.237Z,69.88
2023-10-29T02:36:16.679Z,70.09
2023-10-29T02:38:44.401Z,69.45
2023-10-29T02:41:14.143Z,69.85
2023-10-29T02:43:41.719Z,69.57
2023-10-29T02:46:09.216Z,70.40
2023-10-29T02:48:36.508Z,70.46
2023-10-29T02:51:04.077Z,70.30
2023-10-29T02:53:32.425Z,69.93
2023-10-29T02:56:03.552Z,70.30
2023-10-29T02:58:30.902Z,70.93
2023-10-29T03:01:09.085Z,70.31
2023-10-29T03:03:38.377Z,70.18
2023-10-29T03:06:09.846Z,69.24
2023-10-29T03:08:37.845Z,68.81
2023-10-29T03:11:05.122Z,69.31
2023-10-29T03:13:32.641Z,69.52
2023-10-29T03:16:02.165Z,69.50
2023-10-29T03:18:33.411Z,69.70
2023-10-29T03:21:00.800Z,69.87
2023-10-29T03:23:28.197Z,68.84
2023-10-29T03:26:03.453Z,69.27
2023-10-29T03:28:30.965Z,69.93
2023-10-29T03:30:58.283Z,69.28
2023-10-29T03:33:25.613Z,70.07
2023-10-29T03:35:52.918Z,69.19
2023-10-29T03:38:20.151Z,69.48
2023-10-29T03:40:47.394Z,70.12
2023-10-29T03:43:14.831Z,69.95
2023-10-29T03:45:42.153Z,69.37
2023-10-29T03:48:09.507Z,69.39
2023-10-29T03:50:36.871Z,69.63
2023-10-29T03:53:04.225Z,69.52
2023-10-29T03:55:33.450Z,71.05
2023-10-29T03:58:01.336Z,72.82
2023-10-29T04:00:28.609Z,73.56
2023-10-29T04:02:57.063Z,72.71
2023-10-29T04:05:24.591Z,72.48
2023-10-29T04:07:53.853Z,72.43
2023-10-29T04:10:21.095Z,70.87
2023-10-29T04:12:48.308Z,69.87
2023-10-29T04:15:15.624Z,70.94
2023-10-29T04:17:42.950Z,70.60
2023-10-29T04:20:10.646Z,70.32
2023-10-29T04:22:40.819Z,70.82
2023-10-29T04:25:08.382Z,70.89
2023-10-29T04:27:35.736Z,70.90
2023-10-29T04:30:03.618Z,71.45
2023-10-29T04:32:30.964Z,72.28
2023-10-29T04:34:58.440Z,72.97
2023-10-29T04:37:25.691Z,72.53
2023-10-29T04:39:53.041Z,72.41
2023-10-29T04:42:20.245Z,72.57
2023-10-29T04:44:47.813Z,71.91
2023-10-29T04:47:15.215Z,72.13
2023-10-29T04:49:44.542Z,71.61
2023-10-29T04:52:12.075Z,71.83
2023-10-29T04:54:39.307Z,71.38
2023-10-29T04:57:06.586Z,71.23
2023-10-29T04:59:34.399Z,71.90
2023-10-29T05:02:02.224Z,72.15
2023-10-29T05:04:29.609Z,71.60
2023-10-29T05:06:56.946Z,71.39
2023-10-29T05:09:24.378Z,70.18
2023-10-29T05:11:52.739Z,71.65
2023-10-29T05:14:20.017Z,71.44
2023-10-29T05:16:47.389Z,70.46
2023-10-29T05:19:14.624Z,69.31
2023-10-29T05:21:42.525Z,68.18
2023-10-29T05:24:10.132Z,69.74
2023-10-29T05:26:40.313Z,70.13
2023-10-29T05:29:07.858Z,69.89
2023-10-29T05:31:35.066Z,68.94
2023-10-29T05:34:02.621Z,67.98
2023-10-29T05:36:29.816Z,68.29
2023-10-29T05:38:57.162Z,68.24
2023-10-29T05:41:24.672Z,67.79
2023-10-29T05:43:52.308Z,67.96
2023-10-29T05:46:23.434Z,67.29
2023-10-29T05:48:51.942Z,67.00
2023-10-29T05:51:20.515Z,66.97
2023-10-29T05:53:50.525Z,67.57
2023-10-29T05:56:19.319Z,68.02
2023-10-29T05:58:46.497Z,68.25
2023-10-29T06:01:13.689Z,68.59
2023-10-29T06:03:40.993Z,67.79
2023-10-29T06:06:08.367Z,68.70
2023-10-29T06:08:35.581Z,68.33
2023-10-29T06:11:04.908Z,68.25
2023-10-29T06:13:32.116Z,67.61
2023-10-29T06:16:00.988Z,67.75
2023-10-29T06:18:28.561Z,67.89
2023-10-29T06:21:02.973Z,67.05
2023-10-29T06:23:30.377Z,66.51
2023-10-29T06:26:00.321Z,66.43
2023-10-29T06:28:27.733Z,65.70
2023-10-29T06:30:55.246Z,65.50
2023-10-29T06:33:22.488Z,65.07
2023-10-29T06:35:50.010Z,64.73
2023-10-29T06:38:17.304Z,64.28
2023-10-29T06:40:44.505Z,64.41
2023-10-29T06:43:14.544Z,63.93
2023-10-29T06:45:42.551Z,63.53
2023-10-29T06:48:09.905Z,63.66
2023-10-29T06:50:37.745Z,64.34
2023-10-29T06:53:07.002Z,64.06
2023-10-29T06:55:36.874Z,63.51
2023-10-29T06:58:05.344Z,64.17
2023-10-29T07:00:32.950Z,63.23
2023-10-29T07:03:03.944Z,62.92
2023-10-29T07:05:31.643Z,63.48
2023-10-29T07:08:00.134Z,63.58
2023-10-29T07:10:28.193Z,63.50
2023-10-29T07:12:55.721Z,62.92
2023-10-29T07:15:23.198Z,63.08
2023-10-29T07:17:50.443Z,62.90
2023-10-29T07:20:19.792Z,61.63
2023-10-29T07:22:47.126Z,61.17
2023-10-29T07:25:14.935Z,61.12
2023-10-29T07:27:42.589Z,60.65
2023-10-29T07:30:10.820Z,59.43
2023-10-29T07:32:38.179Z,57.63
2023-10-29T07:35:05.628Z,54.68
2023-10-29T07:37:33.088Z,51.29
2023-10-29T07:40:00.320Z,51.59
2023-10-29T07:42:27.883Z,52.12
2023-10-29T07:44:55.088Z,53.16
2023-10-29T07:47:22.530Z,54.31
2023-10-29T07:49:49.913Z,54.77
2023-10-29T07:52:17.236Z,53.77
2023-10-29T07:54:44.613Z,51.11
2023-10-29T07:57:12.136Z,48.33
2023-10-29T07:59:39.693Z,46.22
2023-10-29T08:02:07.045Z,43.66
2023-10-29T08:04:34.255Z,43.50
2023-10-29T08:07:02.932Z,41.94
2023-10-29T08:09:30.259Z,41.38
2023-10-29T08:11:57.629Z,41.84
2023-10-29T08:14:25.012Z,41.80
2023-10-29T08:16:52.402Z,41.34
2023-10-29T08:19:19.691Z,41.91
2023-10-29T08:21:47.585Z,41.87
2023-10-29T08:24:14.872Z,40.88
2023-10-29T08:26:42.065Z,41.20
2023-10-29T08:29:10.817Z,40.18
2023-10-29T08:31:38.212Z,41.04
2023-10-29T08:34:11.742Z,42.81
2023-10-29T08:36:40.239Z,43.59
2023-10-29T08:39:08.432Z,43.72
2023-10-29T08:41:39.504Z,44.44
2023-10-29T08:44:19.068Z,44.77
2023-10-29T08:46:47.999Z,45.82
2023-10-29T08:49:15.418Z,45.35
2023-10-29T08:51:42.726Z,41.84
2023-10-29T08:54:10.066Z,40.01
2023-10-29T08:56:37.569Z,40.29
2023-10-29T08:59:06.558Z,38.39
2023-10-29T09:01:34.275Z,38.39
2023-10-29T09:04:05.344Z,38.77
2023-10-29T09:06:34.016Z,38.87
2023-10-29T09:09:01.984Z,38.82
2023-10-29T09:11:29.425Z,39.40
2023-10-29T09:13:56.728Z,39.63
2023-10-29T09:16:24.320Z,41.03
2023-10-29T09:18:51.609Z,41.45
2023-10-29T09:21:19.430Z,41.91
2023-10-29T09:23:46.996Z,42.85
2023-10-29T09:26:16.658Z,42.53
2023-10-29T09:28:45.320Z,41.32
2023-10-29T09:31:20.019Z,42.84
2023-10-29T09:33:48.652Z,41.69
2023-10-29T09:36:22.492Z,41.04
2023-10-29T09:38:50.653Z,41.13
2023-10-29T09:41:21.416Z,40.04
2023-10-29T09:43:52.242Z,39.70
2023-10-29T09:46:21.175Z,38.86
2023-10-29T09:48:51.496Z,37.62
2023-10-29T09:51:20.578Z,38.54
2023-10-29T09:53:50.311Z,38.45
2023-10-29T09:56:19.536Z,38.75
2023-10-29T09:58:46.817Z,38.50
2023-10-29T10:01:16.802Z,38.20
2023-10-29T10:03:47.305Z,37.85
2023-10-29T10:06:18.591Z,37.61
2023-10-29T10:08:57.891Z,38.07
2023-10-29T10:11:25.864Z,38.07
2023-10-29T10:13:56.332Z,38.41
2023-10-29T10:16:24.147Z,37.90
2023-10-29T10:18:59.258Z,37.40
2023-10-29T10:21:28.372Z,37.34
2023-10-29T10:23:57.375Z,37.53
2023-10-29T10:26:31.276Z,37.32
2023-10-29T10:29:00.370Z,37.51
2023-10-29T10:31:28.951Z,37.25
2023-10-29T10:34:15.392Z,37.66
2023-10-29T10:36:44.489Z,37.44
2023-10-29T10:39:12.830Z,37.57
2023-10-29T10:41:45.486Z,37.09
2023-10-29T10:44:15.122Z,37.12
2023-10-29T10:46:50.558Z,37.11
2023-10-29T10:49:22.407Z,37.12
2023-10-29T10:51:59.868Z,35.61
2023-10-29T10:54:27.540Z,35.15
2023-10-29T10:56:57.074Z,35.45
2023-10-29T10:59:24.417Z,35.22
2023-10-29T11:01:52.165Z,35.34
2023-10-29T11:04:21.959Z,34.52
2023-10-29T11:06:50.909Z,34.14
2023-10-29T11:09:20.943Z,34.26
2023-10-29T11:11:57.206Z,33.77
2023-10-29T11:14:25.915Z,33.96
2023-10-29T11:17:01.890Z,34.42
2023-10-29T11:19:45.970Z,35.17
2023-10-29T11:22:17.511Z,35.04
2023-10-29T11:25:05.905Z,35.50
2023-10-29T11:27:56.451Z,34.94
2023-10-29T11:30:31.351Z,35.46
2023-10-29T11:33:14.032Z,34.92
2023-10-29T11:35:48.109Z,34.69
2023-10-29T11:38:31.053Z,34.58
2023-10-29T11:40:59.686Z,35.12
2023-10-29T11:43:28.316Z,35.27
2023-10-29T11:46:02.627Z,35.53
2023-10-29T11:48:30.776Z,35.67
2023-10-29T11:51:09.709Z,35.53
2023-10-29T11:53:38.190Z,35.83
2023-10-29T11:56:07.431Z,35.70
2023-10-29T11:58:34.690Z,35.75
2023-10-29T12:01:02.026Z,35.98
2023-10-29T12:03:56.743Z,36.10
2023-10-29T12:06:40.980Z,36.25
2023-10-29T12:09:25.809Z,36.84
2023-10-29T12:11:54.258Z,46.17
2023-10-29T12:14:42.209Z,44.62
2023-10-29T12:17:12.529Z,36.67
2023-10-29T12:19:43.282Z,42.56
2023-10-29T12:22:24.606Z,40.75
2023-10-29T12:25:18.319Z,37.88
2023-10-29T12:27:45.852Z,36.89
2023-10-29T12:30:36.555Z,36.87
2023-10-29T12:33:23.713Z,37.23
2023-10-29T12:35:52.353Z,37.03
2023-10-29T12:38:21.247Z,36.73
2023-10-29T12:41:09.448Z,37.43
2023-10-29T12:43:39.850Z,36.58
2023-10-29T12:46:12.044Z,37.97
2023-10-29T12:48:59.587Z,37.66
2023-10-29T12:51:36.196Z,36.75
2023-10-29T12:54:17.514Z,37.00
2023-10-29T12:56:54.168Z,36.24
2023-10-29T12:59:34.071Z,36.08
2023-10-29T13:02:06.820Z,36.30
2023-10-29T13:04:35.710Z,36.69
2023-10-29T13:07:09.308Z,37.60
2023-10-29T13:09:37.683Z,38.64
2023-10-29T13:12:10.538Z,37.68
2023-10-29T13:14:39.129Z,38.22
2023-10-29T13:17:08.238Z,38.01
2023-10-29T13:19:36.515Z,41.18
2023-10-29T13:22:06.244Z,44.72
2023-10-29T13:24:33.837Z,47.09
2023-10-29T13:27:03.150Z,47.64
2023-10-29T13:29:30.507Z,49.18
2023-10-29T13:31:58.002Z,51.94
2023-10-29T13:34:25.763Z,52.37
2023-10-29T13:36:52.962Z,52.07
2023-10-29T13:39:26.442Z,53.22
2023-10-29T13:41:56.997Z,54.36
2023-10-29T13:44:24.574Z,54.77
2023-10-29T13:46:52.036Z,55.25
2023-10-29T13:49:19.645Z,55.43
2023-10-29T13:51:48.114Z,55.73
2023-10-29T13:54:15.617Z,55.68
2023-10-29T13:56:43.614Z,56.11
2023-10-29T13:59:12.828Z,56.02
2023-10-29T14:01:41.108Z,56.12
2023-10-29T14:04:08.536Z,56.64
2023-10-29T14:06:35.964Z,57.31
2023-10-29T14:09:03.454Z,57.30
2023-10-29T14:11:31.212Z,58.30
2023-10-29T14:13:59.325Z,58.65
2023-10-29T14:16:41.081Z,59.26
2023-10-29T14:19:09.124Z,59.89
2023-10-29T14:21:37.110Z,59.89
2023-10-29T14:24:07.878Z,60.24
2023-10-29T14:26:35.884Z,60.88
2023-10-29T14:29:03.411Z,60.46
2023-10-29T14:31:30.837Z,60.49
2023-10-29T14:33:58.392Z,60.13
2023-10-29T14:36:25.759Z,60.19
2023-10-29T14:38:53.038Z,60.35
2023-10-29T14:41:20.585Z,60.17
2023-10-29T14:43:47.965Z,60.28
2023-10-29T14:46:17.879Z,60.33
2023-10-29T14:48:45.370Z,60.80
2023-10-29T14:51:12.762Z,60.77
2023-10-29T14:53:40.232Z,61.45
2023-10-29T14:56:08.601Z,62.17
2023-10-29T14:58:36.161Z,63.01
2023-10-29T15:01:09.232Z,62.74
2023-10-29T15:03:42.079Z,63.10
2023-10-29T15:06:10.961Z,63.54
2023-10-29T15:08:39.793Z,64.12
2023-10-29T15:11:07.513Z,64.38
2023-10-29T15:13:45.932Z,65.34
2023-10-29T15:16:14.702Z,65.48
2023-10-29T15:18:45.383Z,65.56
2023-10-29T15:21:18.974Z,66.74
2023-10-29T15:23:46.581Z,66.63
2023-10-29T15:26:15.880Z,66.59
2023-10-29T15:28:46.970Z,68.01
2023-10-29T15:31:14.481Z,68.23
2023-10-29T15:33:42.086Z,68.42
2023-10-29T15:36:11.392Z,68.66
2023-10-29T15:38:40.325Z,68.82
2023-10-29T15:41:08.022Z,68.89
2023-10-29T15:43:35.374Z,69.92
2023-10-29T15:46:07.964Z,70.02
2023-10-29T15:48:35.433Z,70.87
2023-10-29T15:51:09.395Z,70.54
2023-10-29T15:53:37.949Z,70.36
2023-10-29T15:56:09.730Z,71.45
2023-10-29T15:58:37.152Z,71.09
2023-10-29T16:01:04.661Z,71.37
2023-10-29T16:03:32.601Z,71.77
2023-10-29T16:06:08.142Z,71.81
2023-10-29T16:08:39.547Z,72.28
2023-10-29T16:11:20.550Z,72.01
2023-10-29T16:13:47.784Z,72.36
2023-10-29T16:16:15.036Z,72.11
2023-10-29T16:18:42.415Z,72.31
2023-10-29T16:21:12.052Z,73.67
2023-10-29T16:23:39.388Z,74.23
2023-10-29T16:26:06.609Z,74.37
2023-10-29T16:28:33.865Z,74.49
2023-10-29T16:31:01.097Z,75.37
2023-10-29T16:33:28.463Z,75.04
2023-10-29T16:35:56.578Z,74.74
2023-10-29T16:38:24.075Z,74.84
2023-10-29T16:40:53.141Z,75.03
2023-10-29T16:43:20.486Z,74.71
2023-10-29T16:45:47.736Z,72.90
2023-10-29T16:48:15.883Z,74.04
2023-10-29T16:50:56.137Z,69.09
2023-10-29T16:53:29.807Z,68.84
2023-10-29T16:56:05.475Z,70.87
2023-10-29T16:58:33.180Z,65.84
2023-10-29T17:01:00.682Z,64.63
2023-10-29T17:03:28.637Z,66.82
2023-10-29T17:05:56.270Z,63.06
2023-10-29T17:08:23.830Z,60.62
2023-10-29T17:10:51.131Z,59.24
2023-10-29T17:13:19.023Z,56.46
2023-10-29T17:15:46.701Z,54.50
2023-10-29T17:18:13.988Z,55.25
2023-10-29T17:20:41.402Z,54.08
2023-10-29T17:23:08.623Z,55.53
2023-10-29T17:25:38.250Z,54.75
2023-10-29T17:28:05.361Z,54.11
2023-10-29T17:30:34.157Z,53.90
2023-10-29T17:33:01.476Z,52.54
2023-10-29T17:35:32.040Z,53.64
2023-10-29T17:37:59.360Z,53.66
2023-10-29T17:40:26.961Z,52.73
2023-10-29T17:42:54.201Z,53.22
2023-10-29T17:45:21.798Z,54.18
2023-10-29T17:47:50.252Z,53.53
2023-10-29T17:50:17.582Z,54.05
2023-10-29T17:52:47.407Z,54.84
2023-10-29T17:55:14.944Z,56.53
2023-10-29T17:57:45.202Z,56.84
2023-10-29T18:00:15.336Z,56.93
2023-10-29T18:02:43.198Z,55.49
2023-10-29T18:05:12.149Z,55.70
2023-10-29T18:07:39.598Z,55.98
2023-10-29T18:10:07.452Z,55.05
2023-10-29T18:12:34.909Z,56.23
2023-10-29T18:15:02.315Z,52.73
2023-10-29T18:17:29.864Z,53.30
2023-10-29T18:19:57.301Z,54.22
2023-10-29T18:22:24.553Z,53.69
2023-10-29T18:24:51.831Z,53.11
2023-10-29T18:27:19.222Z,53.63
2023-10-29T18:29:47.484Z,53.03
2023-10-29T18:32:14.815Z,54.73
2023-10-29T18:34:43.519Z,53.98
2023-10-29T18:37:10.795Z,54.22
2023-10-29T18:39:39.763Z,52.35
2023-10-29T18:42:07.428Z,53.09
2023-10-29T18:44:34.917Z,52.15
2023-10-29T18:47:02.575Z,53.22
2023-10-29T18:49:30.199Z,53.54
2023-10-29T18:51:57.629Z,52.63
2023-10-29T18:54:25.840Z,54.13
2023-10-29T18:56:53.910Z,57.83
2023-10-29T18:59:24.776Z,57.12
2023-10-29T19:01:51.982Z,57.64
2023-10-29T19:04:19.396Z,57.51
2023-10-29T19:06:46.610Z,57.28
2023-10-29T19:09:14.385Z,56.81
2023-10-29T19:11:41.647Z,56.63
2023-10-29T19:14:08.910Z,57.09
2023-10-29T19:16:36.247Z,58.01
2023-10-29T19:19:04.127Z,57.44
2023-10-29T19:21:31.809Z,57.47
2023-10-29T19:23:59.524Z,57.41
2023-10-29T19:26:28.268Z,57.60
2023-10-29T19:28:55.428Z,57.45
2023-10-29T19:31:27.527Z,57.41
2023-10-29T19:33:55.572Z,58.03
2023-10-29T19:36:23.003Z,58.40
2023-10-29T19:38:50.219Z,58.50
2023-10-29T19:41:17.405Z,58.72
2023-10-29T19:43:44.853Z,59.37
2023-10-29T19:46:12.277Z,59.62
2023-10-29T19:48:39.600Z,59.31
2023-10-29T19:51:07.997Z,59.13
2023-10-29T19:53:36.720Z,59.62
2023-10-29T19:56:08.095Z,59.71
2023-10-29T19:58:36.235Z,59.84
2023-10-29T20:01:05.602Z,60.11
2023-10-29T20:03:34.655Z,60.28
2023-10-29T20:06:12.704Z,61.08
2023-10-29T20:08:42.154Z,61.53
2023-10-29T20:11:13.801Z,61.19
2023-10-29T20:13:44.454Z,61.17
2023-10-29T20:16:12.281Z,61.39
2023-10-29T20:19:10.616Z,61.47
2023-10-29T20:21:38.134Z,62.27
2023-10-29T20:24:09.166Z,63.54
2023-10-29T20:26:41.217Z,64.47
2023-10-29T20:29:08.781Z,64.20
2023-10-29T20:31:36.770Z,63.77
2023-10-29T20:34:07.289Z,64.46
2023-10-29T20:36:34.782Z,64.71
2023-10-29T20:39:04.909Z,64.86
2023-10-29T20:56:10.210Z,66.13
2023-10-29T20:59:02.849Z,66.03
2023-10-29T21:06:43.986Z,66.19
2023-10-29T21:26:30.481Z,67.79
2023-10-29T21:38:03.622Z,68.53
2023-10-29T21:40:37.617Z,69.04
2023-10-29T21:43:05.087Z,68.57
2023-10-29T21:45:32.376Z,68.35
2023-10-29T21:48:09.204Z,69.55
2023-10-29T21:50:41.538Z,70.56
2023-10-29T21:53:10.394Z,71.04
2023-10-29T21:55:38.243Z,71.83
2023-10-29T21:58:09.684Z,72.95
2023-10-29T22:00:37.301Z,72.18
2023-10-29T22:03:05.645Z,71.59
2023-10-29T22:05:33.408Z,71.44
2023-10-29T22:08:00.941Z,71.56
2023-10-29T22:10:28.238Z,71.50
2023-10-29T22:12:56.817Z,71.22
2023-10-29T22:15:28.608Z,70.59
2023-10-29T22:17:56.129Z,70.96
2023-10-29T22:20:23.647Z,70.85
2023-10-29T22:22:51.334Z,71.27
2023-10-29T22:25:19.555Z,71.71
2023-10-29T22:27:46.741Z,71.82
2023-10-29T22:30:14.098Z,72.40
2023-10-29T22:32:41.302Z,71.39
2023-10-29T22:35:08.619Z,72.00
2023-10-29T22:37:35.951Z,72.84
2023-10-29T22:40:03.209Z,72.61
2023-10-29T22:42:30.458Z,72.96
2023-10-29T22:44:57.766Z,73.01
2023-10-29T22:47:25.219Z,72.05
2023-10-29T22:49:52.564Z,71.90
2023-10-29T22:52:19.732Z,71.69
2023-10-29T22:54:50.564Z,72.15
2023-10-29T22:57:17.927Z,72.44
2023-10-29T22:59:45.247Z,72.30
2023-10-29T23:02:13.590Z,72.89
2023-10-29T23:04:41.593Z,72.97
2023-10-29T23:07:08.868Z,72.96
2023-10-29T23:09:36.330Z,73.40
2023-10-29T23:12:04.802Z,73.49
2023-10-29T23:14:32.346Z,73.37
2023-10-29T23:16:59.926Z,74.78
2023-10-29T23:19:30.252Z,75.95
2023-10-29T23:21:57.626Z,76.78
2023-10-29T23:24:39.848Z,77.35
2023-10-29T23:27:10.741Z,76.98
2023-10-29T23:29:38.526Z,77.16
2023-10-29T23:32:06.761Z,76.58
2023-10-29T23:34:34.292Z,75.70
2023-10-29T23:37:01.664Z,74.97
2023-10-29T23:39:29.711Z,74.55
2023-10-29T23:41:57.065Z,74.62
2023-10-29T23:44:24.439Z,74.37
2023-10-29T23:47:07.461Z,74.49
2023-10-29T23:49:44.546Z,74.58
2023-10-29T23:52:12.767Z,74.36
2023-10-29T23:54:43.819Z,74.92
2023-10-29T23:57:16.204Z,74.27
2023-10-29T23:59:44.441Z,74.54
